sensor_id;sensor_type;location;lat;lon;timestamp;P1;durP1;ratioP1;P2;durP2;ratioP2
10389;SDS011;5241;47.830;12.972;2023-05-14T00:00:59;10.60;;;7.83;;
10389;SDS011;5241;47.830;12.972;2023-05-14T00:03:25;9.30;;;8.23;;
10389;SDS011;5241;47.830;12.972;2023-05-14T00:05:50;9.27;;;8.33;;
10389;SDS011;5241;47.830;12.972;2023-05-14T00:08:16;11.57;;;8.93;;
10389;SDS011;5241;47.830;12.972;2023-05-14T00:10:41;11.83;;;9.40;;
10389;SDS011;5241;47.830;12.972;2023-05-14T00:13:07;12.50;;;9.67;;
10389;SDS011;5241;47.830;12.972;2023-05-14T00:15:32;11.07;;;9.70;;
10389;SDS011;5241;47.830;12.972;2023-05-14T00:17:58;12.60;;;9.80;;
10389;SDS011;5241;47.830;12.972;2023-05-14T00:20:24;12.13;;;10.77;;
10389;SDS011;5241;47.830;12.972;2023-05-14T00:22:49;13.27;;;11.07;;
10389;SDS011;5241;47.830;12.972;2023-05-14T00:25:15;12.20;;;10.00;;
10389;SDS011;5241;47.830;12.972;2023-05-14T00:27:40;12.00;;;10.10;;
10389;SDS011;5241;47.830;12.972;2023-05-14T00:30:06;12.73;;;11.43;;
10389;SDS011;5241;47.830;12.972;2023-05-14T00:32:32;14.50;;;11.57;;
10389;SDS011;5241;47.830;12.972;2023-05-14T00:34:58;13.93;;;11.13;;
10389;SDS011;5241;47.830;12.972;2023-05-14T00:37:23;14.00;;;11.50;;
10389;SDS011;5241;47.830;12.972;2023-05-14T00:39:49;12.90;;;11.00;;
10389;SDS011;5241;47.830;12.972;2023-05-14T00:42:15;13.43;;;10.53;;
10389;SDS011;5241;47.830;12.972;2023-05-14T00:44:42;12.37;;;10.83;;
10389;SDS011;5241;47.830;12.972;2023-05-14T00:47:07;11.63;;;10.37;;
10389;SDS011;5241;47.830;12.972;2023-05-14T00:49:33;12.10;;;10.27;;
10389;SDS011;5241;47.830;12.972;2023-05-14T00:51:59;10.77;;;9.13;;
10389;SDS011;5241;47.830;12.972;2023-05-14T00:54:25;13.80;;;9.83;;
10389;SDS011;5241;47.830;12.972;2023-05-14T00:56:51;10.87;;;9.50;;
10389;SDS011;5241;47.830;12.972;2023-05-14T00:59:17;11.00;;;9.83;;
10389;SDS011;5241;47.830;12.972;2023-05-14T01:01:43;10.27;;;9.17;;
10389;SDS011;5241;47.830;12.972;2023-05-14T01:04:09;11.77;;;9.03;;
10389;SDS011;5241;47.830;12.972;2023-05-14T01:09:24;9.53;;;8.10;;
10389;SDS011;5241;47.830;12.972;2023-05-14T01:12:07;9.27;;;8.27;;
10389;SDS011;5241;47.830;12.972;2023-05-14T01:14:58;10.70;;;8.43;;
10389;SDS011;5241;47.830;12.972;2023-05-14T01:17:44;10.07;;;7.97;;
10389;SDS011;5241;47.830;12.972;2023-05-14T01:20:19;10.40;;;8.83;;
10389;SDS011;5241;47.830;12.972;2023-05-14T01:22:45;10.33;;;8.00;;
10389;SDS011;5241;47.830;12.972;2023-05-14T01:25:11;10.47;;;8.67;;
10389;SDS011;5241;47.830;12.972;2023-05-14T01:27:37;12.37;;;9.23;;
10389;SDS011;5241;47.830;12.972;2023-05-14T01:30:18;12.27;;;10.53;;
10389;SDS011;5241;47.830;12.972;2023-05-14T01:32:53;13.70;;;11.10;;
10389;SDS011;5241;47.830;12.972;2023-05-14T01:35:22;13.43;;;11.73;;
10389;SDS011;5241;47.830;12.972;2023-05-14T01:37:51;13.70;;;10.97;;
10389;SDS011;5241;47.830;12.972;2023-05-14T01:40:19;13.90;;;11.23;;
10389;SDS011;5241;47.830;12.972;2023-05-14T01:42:45;12.83;;;10.90;;
10389;SDS011;5241;47.830;12.972;2023-05-14T01:45:11;13.03;;;11.57;;
10389;SDS011;5241;47.830;12.972;2023-05-14T01:47:37;14.90;;;11.17;;
10389;SDS011;5241;47.830;12.972;2023-05-14T01:50:02;13.53;;;12.07;;
10389;SDS011;5241;47.830;12.972;2023-05-14T01:52:28;13.97;;;11.33;;
10389;SDS011;5241;47.830;12.972;2023-05-14T01:54:54;13.67;;;10.87;;
10389;SDS011;5241;47.830;12.972;2023-05-14T01:57:19;12.43;;;10.90;;
10389;SDS011;5241;47.830;12.972;2023-05-14T01:59:54;8.90;;;8.00;;
10389;SDS011;5241;47.830;12.972;2023-05-14T02:02:19;9.33;;;8.40;;
10389;SDS011;5241;47.830;12.972;2023-05-14T02:04:45;8.40;;;7.47;;
10389;SDS011;5241;47.830;12.972;2023-05-14T02:07:11;8.83;;;7.93;;
10389;SDS011;5241;47.830;12.972;2023-05-14T02:09:36;9.97;;;8.17;;
10389;SDS011;5241;47.830;12.972;2023-05-14T02:12:02;8.87;;;7.97;;
10389;SDS011;5241;47.830;12.972;2023-05-14T02:14:28;10.40;;;8.27;;
10389;SDS011;5241;47.830;12.972;2023-05-14T02:16:53;11.73;;;9.10;;
10389;SDS011;5241;47.830;12.972;2023-05-14T02:19:19;10.50;;;9.00;;
10389;SDS011;5241;47.830;12.972;2023-05-14T02:21:45;12.30;;;10.40;;
10389;SDS011;5241;47.830;12.972;2023-05-14T02:24:12;13.23;;;9.80;;
10389;SDS011;5241;47.830;12.972;2023-05-14T02:26:37;12.97;;;10.73;;
10389;SDS011;5241;47.830;12.972;2023-05-14T02:29:03;16.40;;;12.30;;
10389;SDS011;5241;47.830;12.972;2023-05-14T02:31:28;18.67;;;11.43;;
10389;SDS011;5241;47.830;12.972;2023-05-14T02:33:54;13.63;;;12.07;;
10389;SDS011;5241;47.830;12.972;2023-05-14T02:36:19;15.53;;;11.33;;
10389;SDS011;5241;47.830;12.972;2023-05-14T02:38:45;17.13;;;12.40;;
10389;SDS011;5241;47.830;12.972;2023-05-14T02:41:10;16.47;;;11.27;;
10389;SDS011;5241;47.830;12.972;2023-05-14T02:43:36;16.63;;;11.90;;
10389;SDS011;5241;47.830;12.972;2023-05-14T02:46:01;16.13;;;11.93;;
10389;SDS011;5241;47.830;12.972;2023-05-14T02:48:27;15.93;;;12.37;;
10389;SDS011;5241;47.830;12.972;2023-05-14T02:50:53;16.47;;;12.37;;
10389;SDS011;5241;47.830;12.972;2023-05-14T02:53:18;19.10;;;11.30;;
10389;SDS011;5241;47.830;12.972;2023-05-14T02:55:44;15.63;;;11.63;;
10389;SDS011;5241;47.830;12.972;2023-05-14T02:58:10;14.93;;;11.53;;
10389;SDS011;5241;47.830;12.972;2023-05-14T03:00:35;18.30;;;11.83;;
10389;SDS011;5241;47.830;12.972;2023-05-14T03:03:01;13.83;;;11.20;;
10389;SDS011;5241;47.830;12.972;2023-05-14T03:05:26;16.83;;;11.53;;
10389;SDS011;5241;47.830;12.972;2023-05-14T03:07:52;14.50;;;11.60;;
10389;SDS011;5241;47.830;12.972;2023-05-14T03:10:18;13.43;;;10.67;;
10389;SDS011;5241;47.830;12.972;2023-05-14T03:12:43;14.17;;;10.60;;
10389;SDS011;5241;47.830;12.972;2023-05-14T03:15:09;12.63;;;9.70;;
10389;SDS011;5241;47.830;12.972;2023-05-14T03:17:35;13.13;;;9.20;;
10389;SDS011;5241;47.830;12.972;2023-05-14T03:20:01;12.13;;;9.77;;
10389;SDS011;5241;47.830;12.972;2023-05-14T03:22:27;13.70;;;9.63;;
10389;SDS011;5241;47.830;12.972;2023-05-14T03:24:53;12.50;;;9.50;;
10389;SDS011;5241;47.830;12.972;2023-05-14T03:27:18;13.73;;;10.23;;
10389;SDS011;5241;47.830;12.972;2023-05-14T03:29:44;12.47;;;9.63;;
10389;SDS011;5241;47.830;12.972;2023-05-14T03:32:10;11.10;;;9.07;;
10389;SDS011;5241;47.830;12.972;2023-05-14T03:34:35;10.63;;;8.70;;
10389;SDS011;5241;47.830;12.972;2023-05-14T03:37:01;10.90;;;8.77;;
10389;SDS011;5241;47.830;12.972;2023-05-14T03:39:27;11.17;;;8.30;;
10389;SDS011;5241;47.830;12.972;2023-05-14T03:41:52;10.83;;;8.30;;
10389;SDS011;5241;47.830;12.972;2023-05-14T03:44:18;11.53;;;8.80;;
10389;SDS011;5241;47.830;12.972;2023-05-14T03:46:43;10.97;;;8.40;;
10389;SDS011;5241;47.830;12.972;2023-05-14T03:49:09;11.63;;;8.00;;
10389;SDS011;5241;47.830;12.972;2023-05-14T03:51:34;11.10;;;7.57;;
10389;SDS011;5241;47.830;12.972;2023-05-14T03:54:03;9.27;;;7.50;;
10389;SDS011;5241;47.830;12.972;2023-05-14T03:56:29;9.73;;;7.50;;
10389;SDS011;5241;47.830;12.972;2023-05-14T03:58:55;10.90;;;7.67;;
10389;SDS011;5241;47.830;12.972;2023-05-14T04:01:20;10.70;;;7.83;;
10389;SDS011;5241;47.830;12.972;2023-05-14T04:03:46;10.57;;;7.70;;
10389;SDS011;5241;47.830;12.972;2023-05-14T04:06:11;9.63;;;7.23;;
10389;SDS011;5241;47.830;12.972;2023-05-14T04:08:37;9.30;;;6.77;;
10389;SDS011;5241;47.830;12.972;2023-05-14T04:11:02;7.30;;;6.60;;
10389;SDS011;5241;47.830;12.972;2023-05-14T04:13:28;7.37;;;6.47;;
10389;SDS011;5241;47.830;12.972;2023-05-14T04:15:54;7.00;;;6.20;;
10389;SDS011;5241;47.830;12.972;2023-05-14T04:18:19;7.07;;;5.70;;
10389;SDS011;5241;47.830;12.972;2023-05-14T04:20:45;6.13;;;5.33;;
10389;SDS011;5241;47.830;12.972;2023-05-14T04:23:10;5.83;;;5.23;;
10389;SDS011;5241;47.830;12.972;2023-05-14T04:25:36;6.63;;;5.63;;
10389;SDS011;5241;47.830;12.972;2023-05-14T04:28:01;5.10;;;4.60;;
10389;SDS011;5241;47.830;12.972;2023-05-14T04:30:27;5.47;;;4.40;;
10389;SDS011;5241;47.830;12.972;2023-05-14T04:32:53;5.43;;;4.93;;
10389;SDS011;5241;47.830;12.972;2023-05-14T04:35:19;5.17;;;4.63;;
10389;SDS011;5241;47.830;12.972;2023-05-14T04:37:45;6.57;;;4.80;;
10389;SDS011;5241;47.830;12.972;2023-05-14T04:40:10;5.07;;;4.57;;
10389;SDS011;5241;47.830;12.972;2023-05-14T04:42:36;5.07;;;4.57;;
10389;SDS011;5241;47.830;12.972;2023-05-14T04:45:02;4.87;;;4.37;;
10389;SDS011;5241;47.830;12.972;2023-05-14T04:47:29;5.33;;;4.83;;
10389;SDS011;5241;47.830;12.972;2023-05-14T04:49:55;4.30;;;3.90;;
10389;SDS011;5241;47.830;12.972;2023-05-14T04:52:21;7.67;;;5.07;;
10389;SDS011;5241;47.830;12.972;2023-05-14T04:54:47;5.67;;;4.97;;
10389;SDS011;5241;47.830;12.972;2023-05-14T04:57:13;5.80;;;5.07;;
10389;SDS011;5241;47.830;12.972;2023-05-14T04:59:39;5.27;;;4.77;;
10389;SDS011;5241;47.830;12.972;2023-05-14T05:02:04;8.20;;;5.10;;
10389;SDS011;5241;47.830;12.972;2023-05-14T05:04:30;5.23;;;4.73;;
10389;SDS011;5241;47.830;12.972;2023-05-14T05:06:55;5.00;;;4.57;;
10389;SDS011;5241;47.830;12.972;2023-05-14T05:09:21;5.13;;;4.63;;
10389;SDS011;5241;47.830;12.972;2023-05-14T05:11:46;5.10;;;4.60;;
10389;SDS011;5241;47.830;12.972;2023-05-14T05:14:12;5.10;;;4.60;;
10389;SDS011;5241;47.830;12.972;2023-05-14T05:16:38;5.33;;;4.40;;
10389;SDS011;5241;47.830;12.972;2023-05-14T05:19:03;4.43;;;4.03;;
10389;SDS011;5241;47.830;12.972;2023-05-14T05:21:29;4.53;;;4.13;;
10389;SDS011;5241;47.830;12.972;2023-05-14T05:23:55;5.87;;;4.53;;
10389;SDS011;5241;47.830;12.972;2023-05-14T05:26:24;5.10;;;4.40;;
10389;SDS011;5241;47.830;12.972;2023-05-14T05:28:50;4.53;;;4.10;;
10389;SDS011;5241;47.830;12.972;2023-05-14T05:31:16;4.37;;;3.87;;
10389;SDS011;5241;47.830;12.972;2023-05-14T05:33:42;5.10;;;4.60;;
10389;SDS011;5241;47.830;12.972;2023-05-14T05:36:08;5.13;;;4.20;;
10389;SDS011;5241;47.830;12.972;2023-05-14T05:38:33;5.30;;;4.80;;
10389;SDS011;5241;47.830;12.972;2023-05-14T05:40:59;4.53;;;4.10;;
10389;SDS011;5241;47.830;12.972;2023-05-14T05:43:24;4.20;;;3.80;;
10389;SDS011;5241;47.830;12.972;2023-05-14T05:45:50;4.60;;;4.20;;
10389;SDS011;5241;47.830;12.972;2023-05-14T05:48:15;5.37;;;4.33;;
10389;SDS011;5241;47.830;12.972;2023-05-14T05:50:41;6.20;;;4.53;;
10389;SDS011;5241;47.830;12.972;2023-05-14T05:53:08;5.70;;;4.40;;
10389;SDS011;5241;47.830;12.972;2023-05-14T05:55:34;5.30;;;4.50;;
10389;SDS011;5241;47.830;12.972;2023-05-14T05:58:00;4.97;;;4.47;;
10389;SDS011;5241;47.830;12.972;2023-05-14T06:00:28;4.87;;;4.47;;
10389;SDS011;5241;47.830;12.972;2023-05-14T06:02:55;6.17;;;4.60;;
10389;SDS011;5241;47.830;12.972;2023-05-14T06:05:20;4.60;;;4.17;;
10389;SDS011;5241;47.830;12.972;2023-05-14T06:07:46;5.00;;;4.50;;
10389;SDS011;5241;47.830;12.972;2023-05-14T06:10:11;4.90;;;4.40;;
10389;SDS011;5241;47.830;12.972;2023-05-14T06:12:37;4.53;;;4.13;;
10389;SDS011;5241;47.830;12.972;2023-05-14T06:15:02;6.50;;;4.23;;
10389;SDS011;5241;47.830;12.972;2023-05-14T06:17:28;4.57;;;4.17;;
10389;SDS011;5241;47.830;12.972;2023-05-14T06:19:54;4.27;;;3.87;;
10389;SDS011;5241;47.830;12.972;2023-05-14T06:22:19;4.43;;;4.03;;
10389;SDS011;5241;47.830;12.972;2023-05-14T06:24:46;4.60;;;4.20;;
10389;SDS011;5241;47.830;12.972;2023-05-14T06:27:15;4.60;;;4.03;;
10389;SDS011;5241;47.830;12.972;2023-05-14T06:29:43;3.67;;;3.27;;
10389;SDS011;5241;47.830;12.972;2023-05-14T06:32:09;4.43;;;3.50;;
10389;SDS011;5241;47.830;12.972;2023-05-14T06:34:35;5.03;;;3.97;;
10389;SDS011;5241;47.830;12.972;2023-05-14T06:37:01;4.60;;;3.63;;
10389;SDS011;5241;47.830;12.972;2023-05-14T06:39:28;4.27;;;3.50;;
10389;SDS011;5241;47.830;12.972;2023-05-14T06:41:53;5.00;;;4.20;;
10389;SDS011;5241;47.830;12.972;2023-05-14T06:44:19;5.10;;;4.70;;
10389;SDS011;5241;47.830;12.972;2023-05-14T06:46:44;4.30;;;3.90;;
10389;SDS011;5241;47.830;12.972;2023-05-14T06:49:10;4.73;;;4.20;;
10389;SDS011;5241;47.830;12.972;2023-05-14T06:51:35;4.83;;;4.33;;
10389;SDS011;5241;47.830;12.972;2023-05-14T06:54:02;4.47;;;4.07;;
10389;SDS011;5241;47.830;12.972;2023-05-14T06:56:28;4.20;;;3.80;;
10389;SDS011;5241;47.830;12.972;2023-05-14T06:58:57;5.33;;;4.83;;
10389;SDS011;5241;47.830;12.972;2023-05-14T07:01:23;5.20;;;4.70;;
10389;SDS011;5241;47.830;12.972;2023-05-14T07:03:48;4.90;;;4.50;;
10389;SDS011;5241;47.830;12.972;2023-05-14T07:06:14;5.30;;;4.80;;
10389;SDS011;5241;47.830;12.972;2023-05-14T07:08:39;5.53;;;5.03;;
10389;SDS011;5241;47.830;12.972;2023-05-14T07:11:06;5.33;;;4.83;;
10389;SDS011;5241;47.830;12.972;2023-05-14T07:13:31;6.23;;;4.60;;
10389;SDS011;5241;47.830;12.972;2023-05-14T07:15:57;5.40;;;4.90;;
10389;SDS011;5241;47.830;12.972;2023-05-14T07:18:23;5.20;;;4.70;;
10389;SDS011;5241;47.830;12.972;2023-05-14T07:20:48;4.67;;;4.27;;
10389;SDS011;5241;47.830;12.972;2023-05-14T07:23:14;3.73;;;3.43;;
10389;SDS011;5241;47.830;12.972;2023-05-14T07:25:39;4.93;;;3.40;;
10389;SDS011;5241;47.830;12.972;2023-05-14T07:28:05;5.10;;;4.60;;
10389;SDS011;5241;47.830;12.972;2023-05-14T07:30:31;5.03;;;4.53;;
10389;SDS011;5241;47.830;12.972;2023-05-14T07:32:56;5.20;;;4.70;;
10389;SDS011;5241;47.830;12.972;2023-05-14T07:35:22;4.77;;;4.37;;
10389;SDS011;5241;47.830;12.972;2023-05-14T07:37:47;5.40;;;4.47;;
10389;SDS011;5241;47.830;12.972;2023-05-14T07:40:13;6.43;;;4.63;;
10389;SDS011;5241;47.830;12.972;2023-05-14T07:42:39;4.40;;;4.00;;
10389;SDS011;5241;47.830;12.972;2023-05-14T07:45:04;3.97;;;3.67;;
10389;SDS011;5241;47.830;12.972;2023-05-14T07:47:30;4.67;;;4.20;;
10389;SDS011;5241;47.830;12.972;2023-05-14T07:49:56;4.27;;;3.87;;
10389;SDS011;5241;47.830;12.972;2023-05-14T07:52:23;4.10;;;3.70;;
10389;SDS011;5241;47.830;12.972;2023-05-14T07:54:49;5.67;;;4.23;;
10389;SDS011;5241;47.830;12.972;2023-05-14T07:57:19;4.40;;;4.00;;
10389;SDS011;5241;47.830;12.972;2023-05-14T07:59:44;4.73;;;4.30;;
10389;SDS011;5241;47.830;12.972;2023-05-14T08:02:13;4.90;;;4.50;;
10389;SDS011;5241;47.830;12.972;2023-05-14T08:04:40;5.07;;;4.57;;
10389;SDS011;5241;47.830;12.972;2023-05-14T08:07:07;5.10;;;4.70;;
10389;SDS011;5241;47.830;12.972;2023-05-14T08:09:33;5.07;;;4.50;;
10389;SDS011;5241;47.830;12.972;2023-05-14T08:11:59;4.77;;;4.30;;
10389;SDS011;5241;47.830;12.972;2023-05-14T08:14:24;4.00;;;3.70;;
10389;SDS011;5241;47.830;12.972;2023-05-14T08:16:50;4.47;;;3.83;;
10389;SDS011;5241;47.830;12.972;2023-05-14T08:19:16;4.20;;;3.80;;
10389;SDS011;5241;47.830;12.972;2023-05-14T08:21:41;4.43;;;3.90;;
10389;SDS011;5241;47.830;12.972;2023-05-14T08:24:07;3.97;;;3.67;;
10389;SDS011;5241;47.830;12.972;2023-05-14T08:26:32;3.93;;;3.50;;
10389;SDS011;5241;47.830;12.972;2023-05-14T08:28:58;4.13;;;3.83;;
10389;SDS011;5241;47.830;12.972;2023-05-14T08:31:23;3.80;;;3.50;;
10389;SDS011;5241;47.830;12.972;2023-05-14T08:33:49;3.80;;;3.50;;
10389;SDS011;5241;47.830;12.972;2023-05-14T08:36:15;4.33;;;3.93;;
10389;SDS011;5241;47.830;12.972;2023-05-14T08:38:40;4.00;;;3.60;;
10389;SDS011;5241;47.830;12.972;2023-05-14T08:41:06;3.80;;;3.50;;
10389;SDS011;5241;47.830;12.972;2023-05-14T08:44:19;3.83;;;3.50;;
10389;SDS011;5241;47.830;12.972;2023-05-14T08:46:28;3.83;;;3.53;;
10389;SDS011;5241;47.830;12.972;2023-05-14T08:48:55;3.80;;;3.50;;
10389;SDS011;5241;47.830;12.972;2023-05-14T08:51:28;3.77;;;3.47;;
10389;SDS011;5241;47.830;12.972;2023-05-14T08:53:54;4.80;;;3.63;;
10389;SDS011;5241;47.830;12.972;2023-05-14T08:56:21;3.60;;;3.30;;
10389;SDS011;5241;47.830;12.972;2023-05-14T08:58:47;4.53;;;3.87;;
10389;SDS011;5241;47.830;12.972;2023-05-14T09:01:13;4.20;;;3.80;;
10389;SDS011;5241;47.830;12.972;2023-05-14T09:03:38;4.40;;;4.00;;
10389;SDS011;5241;47.830;12.972;2023-05-14T09:06:05;5.90;;;3.70;;
10389;SDS011;5241;47.830;12.972;2023-05-14T09:08:31;3.93;;;3.63;;
10389;SDS011;5241;47.830;12.972;2023-05-14T09:10:58;3.87;;;3.47;;
10389;SDS011;5241;47.830;12.972;2023-05-14T09:13:27;3.90;;;3.53;;
10389;SDS011;5241;47.830;12.972;2023-05-14T09:15:53;4.17;;;3.87;;
10389;SDS011;5241;47.830;12.972;2023-05-14T09:18:19;4.33;;;3.93;;
10389;SDS011;5241;47.830;12.972;2023-05-14T09:20:45;4.60;;;4.20;;
10389;SDS011;5241;47.830;12.972;2023-05-14T09:23:11;3.73;;;3.43;;
10389;SDS011;5241;47.830;12.972;2023-05-14T09:25:36;4.37;;;3.70;;
10389;SDS011;5241;47.830;12.972;2023-05-14T09:28:04;5.83;;;3.80;;
10389;SDS011;5241;47.830;12.972;2023-05-14T09:30:31;4.63;;;3.87;;
10389;SDS011;5241;47.830;12.972;2023-05-14T09:32:58;5.87;;;3.90;;
10389;SDS011;5241;47.830;12.972;2023-05-14T09:35:24;4.37;;;3.90;;
10389;SDS011;5241;47.830;12.972;2023-05-14T09:37:50;3.73;;;3.43;;
10389;SDS011;5241;47.830;12.972;2023-05-14T09:40:18;4.00;;;3.70;;
10389;SDS011;5241;47.830;12.972;2023-05-14T09:42:48;3.80;;;3.50;;
10389;SDS011;5241;47.830;12.972;2023-05-14T09:45:14;3.90;;;3.60;;
10389;SDS011;5241;47.830;12.972;2023-05-14T09:47:41;3.77;;;3.47;;
10389;SDS011;5241;47.830;12.972;2023-05-14T09:50:07;3.43;;;3.13;;
10389;SDS011;5241;47.830;12.972;2023-05-14T09:52:33;4.20;;;3.50;;
10389;SDS011;5241;47.830;12.972;2023-05-14T09:54:59;4.40;;;3.43;;
10389;SDS011;5241;47.830;12.972;2023-05-14T09:57:25;4.33;;;3.93;;
10389;SDS011;5241;47.830;12.972;2023-05-14T09:59:51;4.30;;;3.40;;
10389;SDS011;5241;47.830;12.972;2023-05-14T10:04:48;4.40;;;4.00;;
10389;SDS011;5241;47.830;12.972;2023-05-14T10:07:16;3.93;;;3.63;;
10389;SDS011;5241;47.830;12.972;2023-05-14T10:09:45;4.33;;;3.93;;
10389;SDS011;5241;47.830;12.972;2023-05-14T10:12:11;4.37;;;3.97;;
10389;SDS011;5241;47.830;12.972;2023-05-14T10:14:45;4.80;;;4.20;;
10389;SDS011;5241;47.830;12.972;2023-05-14T10:17:18;4.40;;;4.00;;
10389;SDS011;5241;47.830;12.972;2023-05-14T10:19:51;5.13;;;4.70;;
10389;SDS011;5241;47.830;12.972;2023-05-14T10:22:24;5.10;;;4.60;;
10389;SDS011;5241;47.830;12.972;2023-05-14T10:25:01;4.83;;;4.30;;
10389;SDS011;5241;47.830;12.972;2023-05-14T10:27:27;4.40;;;4.00;;
10389;SDS011;5241;47.830;12.972;2023-05-14T10:29:54;5.83;;;5.33;;
10389;SDS011;5241;47.830;12.972;2023-05-14T10:32:20;5.17;;;4.70;;
10389;SDS011;5241;47.830;12.972;2023-05-14T10:34:49;6.77;;;4.60;;
10389;SDS011;5241;47.830;12.972;2023-05-14T10:39:42;4.90;;;4.50;;
10389;SDS011;5241;47.830;12.972;2023-05-14T10:42:16;5.30;;;4.90;;
10389;SDS011;5241;47.830;12.972;2023-05-14T10:45:16;5.17;;;4.67;;
10389;SDS011;5241;47.830;12.972;2023-05-14T10:47:37;9.47;;;8.47;;
10389;SDS011;5241;47.830;12.972;2023-05-14T10:50:04;4.27;;;3.97;;
10389;SDS011;5241;47.830;12.972;2023-05-14T10:52:31;5.60;;;4.53;;
10389;SDS011;5241;47.830;12.972;2023-05-14T10:54:58;6.27;;;5.13;;
10389;SDS011;5241;47.830;12.972;2023-05-14T10:57:28;5.20;;;4.70;;
10389;SDS011;5241;47.830;12.972;2023-05-14T10:59:56;4.77;;;4.37;;
10389;SDS011;5241;47.830;12.972;2023-05-14T11:02:37;4.83;;;4.43;;
10389;SDS011;5241;47.830;12.972;2023-05-14T11:05:05;5.40;;;4.90;;
10389;SDS011;5241;47.830;12.972;2023-05-14T11:07:36;5.30;;;4.80;;
10389;SDS011;5241;47.830;12.972;2023-05-14T11:10:10;6.60;;;4.80;;
10389;SDS011;5241;47.830;12.972;2023-05-14T11:12:37;4.60;;;4.20;;
10389;SDS011;5241;47.830;12.972;2023-05-14T11:15:08;6.00;;;5.50;;
10389;SDS011;5241;47.830;12.972;2023-05-14T11:17:39;5.63;;;5.13;;
10389;SDS011;5241;47.830;12.972;2023-05-14T11:20:05;5.00;;;4.60;;
10389;SDS011;5241;47.830;12.972;2023-05-14T11:22:32;4.60;;;4.20;;
10389;SDS011;5241;47.830;12.972;2023-05-14T11:24:58;5.00;;;4.30;;
10389;SDS011;5241;47.830;12.972;2023-05-14T11:27:24;4.20;;;3.80;;
10389;SDS011;5241;47.830;12.972;2023-05-14T11:29:50;4.67;;;4.27;;
10389;SDS011;5241;47.830;12.972;2023-05-14T11:32:16;3.90;;;3.50;;
10389;SDS011;5241;47.830;12.972;2023-05-14T11:34:43;4.43;;;4.13;;
10389;SDS011;5241;47.830;12.972;2023-05-14T11:37:10;4.63;;;4.23;;
10389;SDS011;5241;47.830;12.972;2023-05-14T11:39:37;4.23;;;3.83;;
10389;SDS011;5241;47.830;12.972;2023-05-14T11:42:10;4.00;;;3.67;;
10389;SDS011;5241;47.830;12.972;2023-05-14T11:44:39;3.90;;;3.53;;
10389;SDS011;5241;47.830;12.972;2023-05-14T11:47:06;4.63;;;4.23;;
10389;SDS011;5241;47.830;12.972;2023-05-14T11:49:31;4.23;;;3.83;;
10389;SDS011;5241;47.830;12.972;2023-05-14T11:52:01;4.43;;;4.03;;
10389;SDS011;5241;47.830;12.972;2023-05-14T11:54:29;4.83;;;4.43;;
10389;SDS011;5241;47.830;12.972;2023-05-14T11:56:55;5.83;;;4.70;;
10389;SDS011;5241;47.830;12.972;2023-05-14T11:59:29;4.40;;;4.10;;
10389;SDS011;5241;47.830;12.972;2023-05-14T12:01:56;4.80;;;4.37;;
10389;SDS011;5241;47.830;12.972;2023-05-14T12:04:23;4.30;;;3.90;;
10389;SDS011;5241;47.830;12.972;2023-05-14T12:06:49;5.07;;;4.67;;
10389;SDS011;5241;47.830;12.972;2023-05-14T12:09:19;4.80;;;4.00;;
10389;SDS011;5241;47.830;12.972;2023-05-14T12:11:45;4.80;;;4.40;;
10389;SDS011;5241;47.830;12.972;2023-05-14T12:14:22;3.87;;;3.57;;
10389;SDS011;5241;47.830;12.972;2023-05-14T12:16:48;4.10;;;3.80;;
10389;SDS011;5241;47.830;12.972;2023-05-14T12:19:17;4.37;;;3.97;;
10389;SDS011;5241;47.830;12.972;2023-05-14T12:21:44;4.80;;;4.40;;
10389;SDS011;5241;47.830;12.972;2023-05-14T12:24:16;5.07;;;4.57;;
10389;SDS011;5241;47.830;12.972;2023-05-14T12:26:48;14.50;;;13.20;;
10389;SDS011;5241;47.830;12.972;2023-05-14T12:29:15;8.60;;;7.90;;
10389;SDS011;5241;47.830;12.972;2023-05-14T12:31:48;4.97;;;4.57;;
10389;SDS011;5241;47.830;12.972;2023-05-14T12:34:14;5.33;;;4.83;;
10389;SDS011;5241;47.830;12.972;2023-05-14T12:36:41;5.27;;;4.77;;
10389;SDS011;5241;47.830;12.972;2023-05-14T12:39:07;5.17;;;4.67;;
10389;SDS011;5241;47.830;12.972;2023-05-14T12:41:33;5.50;;;5.00;;
10389;SDS011;5241;47.830;12.972;2023-05-14T12:44:01;5.43;;;4.83;;
10389;SDS011;5241;47.830;12.972;2023-05-14T12:46:28;5.43;;;4.93;;
10389;SDS011;5241;47.830;12.972;2023-05-14T12:48:53;4.70;;;4.30;;
10389;SDS011;5241;47.830;12.972;2023-05-14T12:51:19;5.30;;;4.80;;
10389;SDS011;5241;47.830;12.972;2023-05-14T12:53:45;5.83;;;5.33;;
10389;SDS011;5241;47.830;12.972;2023-05-14T12:56:11;5.20;;;4.80;;
10389;SDS011;5241;47.830;12.972;2023-05-14T12:58:37;5.63;;;5.13;;
10389;SDS011;5241;47.830;12.972;2023-05-14T13:01:03;6.10;;;5.60;;
10389;SDS011;5241;47.830;12.972;2023-05-14T13:03:29;5.53;;;4.97;;
10389;SDS011;5241;47.830;12.972;2023-05-14T13:05:55;5.60;;;5.10;;
10389;SDS011;5241;47.830;12.972;2023-05-14T13:08:21;6.87;;;6.20;;
10389;SDS011;5241;47.830;12.972;2023-05-14T13:10:49;6.47;;;5.87;;
10389;SDS011;5241;47.830;12.972;2023-05-14T13:13:15;6.87;;;6.17;;
10389;SDS011;5241;47.830;12.972;2023-05-14T13:15:40;6.57;;;5.93;;
10389;SDS011;5241;47.830;12.972;2023-05-14T13:18:06;12.07;;;8.03;;
10389;SDS011;5241;47.830;12.972;2023-05-14T13:20:32;8.63;;;7.83;;
10389;SDS011;5241;47.830;12.972;2023-05-14T13:22:58;11.30;;;9.47;;
10389;SDS011;5241;47.830;12.972;2023-05-14T13:25:24;10.13;;;9.13;;
10389;SDS011;5241;47.830;12.972;2023-05-14T13:27:50;11.40;;;10.20;;
10389;SDS011;5241;47.830;12.972;2023-05-14T13:30:16;11.90;;;10.70;;
10389;SDS011;5241;47.830;12.972;2023-05-14T13:32:42;10.47;;;9.47;;
10389;SDS011;5241;47.830;12.972;2023-05-14T13:35:08;9.80;;;8.83;;
10389;SDS011;5241;47.830;12.972;2023-05-14T13:37:34;10.03;;;8.73;;
10389;SDS011;5241;47.830;12.972;2023-05-14T13:40:00;10.20;;;9.20;;
10389;SDS011;5241;47.830;12.972;2023-05-14T13:42:28;10.40;;;9.47;;
10389;SDS011;5241;47.830;12.972;2023-05-14T13:44:54;9.53;;;8.63;;
10389;SDS011;5241;47.830;12.972;2023-05-14T13:47:20;9.97;;;8.40;;
10389;SDS011;5241;47.830;12.972;2023-05-14T13:49:45;8.87;;;8.07;;
10389;SDS011;5241;47.830;12.972;2023-05-14T13:52:11;9.47;;;8.67;;
10389;SDS011;5241;47.830;12.972;2023-05-14T13:54:37;10.03;;;9.13;;
10389;SDS011;5241;47.830;12.972;2023-05-14T13:57:02;9.17;;;8.27;;
10389;SDS011;5241;47.830;12.972;2023-05-14T13:59:28;10.27;;;9.27;;
10389;SDS011;5241;47.830;12.972;2023-05-14T14:01:54;8.17;;;7.47;;
10389;SDS011;5241;47.830;12.972;2023-05-14T14:04:19;8.87;;;7.90;;
10389;SDS011;5241;47.830;12.972;2023-05-14T14:06:46;6.67;;;6.10;;
10389;SDS011;5241;47.830;12.972;2023-05-14T14:09:11;6.93;;;6.33;;
10389;SDS011;5241;47.830;12.972;2023-05-14T14:11:37;7.97;;;7.27;;
10389;SDS011;5241;47.830;12.972;2023-05-14T14:14:03;6.80;;;6.30;;
10389;SDS011;5241;47.830;12.972;2023-05-14T14:16:29;6.10;;;5.60;;
10389;SDS011;5241;47.830;12.972;2023-05-14T14:18:54;5.90;;;5.50;;
10389;SDS011;5241;47.830;12.972;2023-05-14T14:21:21;6.10;;;5.60;;
10389;SDS011;5241;47.830;12.972;2023-05-14T14:23:46;5.30;;;4.90;;
10389;SDS011;5241;47.830;12.972;2023-05-14T14:26:12;6.00;;;5.50;;
10389;SDS011;5241;47.830;12.972;2023-05-14T14:28:38;6.13;;;5.53;;
10389;SDS011;5241;47.830;12.972;2023-05-14T14:31:04;6.63;;;6.07;;
10389;SDS011;5241;47.830;12.972;2023-05-14T14:33:30;7.23;;;6.63;;
10389;SDS011;5241;47.830;12.972;2023-05-14T14:35:55;8.60;;;7.70;;
10389;SDS011;5241;47.830;12.972;2023-05-14T14:38:21;7.77;;;6.97;;
10389;SDS011;5241;47.830;12.972;2023-05-14T14:40:47;11.30;;;9.47;;
10389;SDS011;5241;47.830;12.972;2023-05-14T14:43:12;9.07;;;8.00;;
10389;SDS011;5241;47.830;12.972;2023-05-14T14:45:38;7.47;;;6.53;;
10389;SDS011;5241;47.830;12.972;2023-05-14T14:50:53;7.00;;;6.40;;